Eden, UT (84310)

6:00 PM MDT on May 04, 2015 (GMT -0600)
MesoWest | | Change Station
CLOSE
Current Station
Personal Weather Station
Location: Eden, UT
Elevation: 5700 ft
Nearby Weather Stations

Elev 5700 ft 41.36 °N, 111.90 °W | Updated 30 minutes ago

Overcast
Overcast
56 °F
Feels Like 56 °F
N
1
Wind Variable Wind from SSW
Gusts 5.0 mph

Today
High -- | Low -- °F
--% Chance of Precip.
Yesterday
High -- | Low -- °F
Precip. -- in
6:21 AM 8:27 PM
Full, 99% visible
Pressure 29.74 in
Visibility 10.0 miles
Clouds Clear
Dew Point 44 °F
Humidity 63%
Rainfall in
Snow Depth Not available.
UV 3 out of 12
Pollen 7.80 out of 12
Air Quality Not available.
Flu Activity Regional
METAR KOGD 042353Z 05008G17KT 10SM CLR 19/04 A2986 RMK AO2 SLP071 T01890044 10239 20189 58003

More Conditions Fewer Conditions

Pressure 29.74 in
Visibility 10.0 miles
Clouds Clear
Dew Point 44 °F
Humidity 63%
Rainfall in
Snow Depth Not available.
UV 3 out of 12
Pollen 7.80 out of 12
Air Quality Not available.
Flu Activity Regional
METAR KOGD 042353Z 05008G17KT 10SM CLR 19/04 A2986 RMK AO2 SLP071 T01890044 10239 20189 58003

More Conditions Fewer Conditions

Nepal has a long way to go to dig out and rebuild from a devastating earthquake. We have teamed up with several charities and organizations to make contributing to the relief effort as easy as possible.
How you can help: Portlight Strategies | Red Cross

10-Day Weather Forecast

Almanac

Astronomy

May. 04, 2015 Rise Set
Actual Time
Civil Twilight
Nautical Twilight
Astronomical Twilight
Moon
Length of Visible Light
Length of Day
Tomorrow will be .
, % of the Moon is Illuminated

Today's Extremes

State Highs State Lows

Community

WunderPhotos

Upload Photos

1,818,739 photos uploaded!

WunderBlogs® & News

Nearby

Air Quality

  Air Quality AQ Index Pollutant
Not available.

Snow Depth

Station Depth Elevation

Earthquake Activity

City Distance Mag. Time & Date
Minimum magnitude displayed is 2.5.

Coastal Water Temperatures

Place Temperature

Stations

Nearby Weather Stations

Station Location Temp. Windchill Dew Point Humidity Wind Precip. Elev Updated Type